createdAt,value
2022-12-23T00:02:37.322Z,100.00
2022-12-23T00:05:40.244Z,100.00
2022-12-23T00:08:44.494Z,100.00
2022-12-23T00:12:14.642Z,100.00
2022-12-23T00:15:16.460Z,100.00
2022-12-23T00:18:19.218Z,100.00
2022-12-23T00:21:21.868Z,100.00
2022-12-23T00:24:25.923Z,100.00
2022-12-23T00:27:32.835Z,100.00
2022-12-23T00:30:38.784Z,100.00
2022-12-23T00:33:42.394Z,100.00
2022-12-23T00:36:45.079Z,100.00
2022-12-23T00:40:09.763Z,100.00
2022-12-23T00:43:12.413Z,100.00
2022-12-23T00:46:15.101Z,100.00
2022-12-23T00:49:36.233Z,100.00
2022-12-23T00:52:38.890Z,100.00
2022-12-23T00:55:43.155Z,100.00
2022-12-23T00:58:45.831Z,100.00
2022-12-23T01:02:06.135Z,100.00
2022-12-23T01:05:37.325Z,100.00
2022-12-23T01:08:39.947Z,100.00
2022-12-23T01:11:46.884Z,100.00
2022-12-23T01:14:49.578Z,100.00
2022-12-23T01:17:52.160Z,100.00
2022-12-23T01:20:54.822Z,100.00
2022-12-23T01:23:57.491Z,100.00
2022-12-23T01:27:01.657Z,100.00
2022-12-23T01:30:04.525Z,100.00
2022-12-23T01:33:07.241Z,100.00
2022-12-23T01:36:10.964Z,100.00
2022-12-23T01:39:13.598Z,100.00
2022-12-23T01:42:36.964Z,100.00
2022-12-23T01:45:41.980Z,100.00
2022-12-23T01:48:45.820Z,100.00
2022-12-23T01:51:48.401Z,100.00
2022-12-23T01:54:51.044Z,100.00
2022-12-23T01:57:55.400Z,99.99
2022-12-23T02:01:15.790Z,100.00
2022-12-23T02:04:20.507Z,100.00
2022-12-23T02:07:40.785Z,99.58
2022-12-23T02:11:09.957Z,99.68
2022-12-23T02:14:37.892Z,99.65
2022-12-23T02:17:44.807Z,100.00
2022-12-23T02:21:02.812Z,99.76
2022-12-23T02:24:20.793Z,99.52
2022-12-23T02:27:28.482Z,99.62
2022-12-23T02:30:44.045Z,99.82
2022-12-23T02:33:50.400Z,99.83
2022-12-23T02:36:55.191Z,99.82
2022-12-23T02:39:59.532Z,99.52
2022-12-23T02:43:05.365Z,99.93
2022-12-23T02:46:11.867Z,99.29
2022-12-23T02:49:15.913Z,99.36
2022-12-23T02:52:19.364Z,99.72
2022-12-23T02:55:24.178Z,99.55
2022-12-23T02:58:28.597Z,99.35
2022-12-23T03:01:33.074Z,99.00
2022-12-23T03:04:38.209Z,99.80
2022-12-23T03:07:42.681Z,99.26
2022-12-23T03:10:53.151Z,99.52
2022-12-23T03:14:21.662Z,99.11
2022-12-23T03:17:36.804Z,99.28
2022-12-23T03:20:42.883Z,99.44
2022-12-23T03:23:51.978Z,99.54
2022-12-23T03:27:00.730Z,99.27
2022-12-23T03:30:04.976Z,99.01
2022-12-23T03:33:14.680Z,98.90
2022-12-23T03:36:18.813Z,99.15
2022-12-23T03:39:23.041Z,98.49
2022-12-23T03:42:27.247Z,98.53
2022-12-23T03:45:40.289Z,98.67
2022-12-23T03:48:46.309Z,98.69
2022-12-23T03:51:51.804Z,98.81
2022-12-23T03:54:55.389Z,98.54
2022-12-23T03:58:01.044Z,98.39
2022-12-23T04:01:06.836Z,98.25
2022-12-23T04:04:12.415Z,98.55
2022-12-23T04:07:17.523Z,98.59
2022-12-23T04:10:21.192Z,97.88
2022-12-23T04:13:26.492Z,97.91
2022-12-23T04:16:29.183Z,98.37
2022-12-23T04:19:33.368Z,98.46
2022-12-23T04:22:36.059Z,97.97
2022-12-23T04:25:38.828Z,98.45
2022-12-23T04:28:43.969Z,98.04
2022-12-23T04:31:46.762Z,98.71
2022-12-23T04:34:50.864Z,98.64
2022-12-23T04:37:53.551Z,98.65
2022-12-23T04:40:56.164Z,98.35
2022-12-23T04:43:58.893Z,98.03
2022-12-23T04:47:01.649Z,97.77
2022-12-23T04:50:06.752Z,98.61
2022-12-23T04:53:09.553Z,98.09
2022-12-23T04:56:12.184Z,97.96
2022-12-23T04:59:14.905Z,98.25
2022-12-23T05:02:17.618Z,98.44
2022-12-23T05:05:21.688Z,97.67
2022-12-23T05:08:24.435Z,98.32
2022-12-23T05:11:27.086Z,97.95
2022-12-23T05:14:29.818Z,97.41
2022-12-23T05:17:32.458Z,97.50
2022-12-23T05:20:36.462Z,97.79
2022-12-23T05:23:39.495Z,97.27
2022-12-23T05:26:47.608Z,96.91
2022-12-23T05:29:50.595Z,97.04
2022-12-23T05:32:54.189Z,97.36
2022-12-23T05:35:58.291Z,97.02
2022-12-23T05:39:01.089Z,96.75
2022-12-23T05:42:03.766Z,97.45
2022-12-23T05:45:07.431Z,97.63
2022-12-23T05:48:10.215Z,97.30
2022-12-23T05:51:14.317Z,97.59
2022-12-23T05:54:17.050Z,97.43
2022-12-23T05:57:19.682Z,97.96
2022-12-23T06:00:22.871Z,97.42
2022-12-23T06:03:25.967Z,97.58
2022-12-23T06:06:30.179Z,97.67
2022-12-23T06:09:32.880Z,97.27
2022-12-23T06:12:35.701Z,97.13
2022-12-23T06:15:38.453Z,97.39
2022-12-23T06:18:41.319Z,97.21
2022-12-23T06:21:45.484Z,98.01
2022-12-23T06:24:48.384Z,97.85
2022-12-23T06:27:51.127Z,97.60
2022-12-23T06:30:54.705Z,97.31
2022-12-23T06:33:57.464Z,97.09
2022-12-23T06:37:01.480Z,96.58
2022-12-23T06:40:04.520Z,97.20
2022-12-23T06:43:07.155Z,97.12
2022-12-23T06:46:09.895Z,97.26
2022-12-23T06:49:13.665Z,97.13
2022-12-23T06:52:18.289Z,97.11
2022-12-23T06:55:20.953Z,96.54
2022-12-23T06:58:23.612Z,96.80
2022-12-23T07:01:26.478Z,96.96
2022-12-23T07:04:29.358Z,97.05
2022-12-23T07:07:33.527Z,96.64
2022-12-23T07:10:36.276Z,96.68
2022-12-23T07:13:40.101Z,97.29
2022-12-23T07:16:42.933Z,97.17
2022-12-23T07:19:45.729Z,97.24
2022-12-23T07:22:50.857Z,97.03
2022-12-23T07:25:55.814Z,96.73
2022-12-23T07:28:58.517Z,97.18
2022-12-23T07:32:02.716Z,97.38
2022-12-23T07:35:06.146Z,96.94
2022-12-23T07:38:10.287Z,96.64
2022-12-23T07:41:12.906Z,97.02
2022-12-23T07:44:15.679Z,97.07
2022-12-23T07:47:18.355Z,96.44
2022-12-23T07:50:21.053Z,96.55
2022-12-23T07:53:25.090Z,97.31
2022-12-23T07:56:27.734Z,97.07
2022-12-23T07:59:30.408Z,96.53
2022-12-23T08:02:33.278Z,96.60
2022-12-23T08:05:36.103Z,96.62
2022-12-23T08:08:40.422Z,97.57
2022-12-23T08:11:43.083Z,97.08
2022-12-23T08:14:45.851Z,97.60
2022-12-23T08:17:48.572Z,97.83
2022-12-23T08:20:57.456Z,97.54
2022-12-23T08:24:01.477Z,97.54
2022-12-23T08:27:04.167Z,97.83
2022-12-23T08:30:09.538Z,97.56
2022-12-23T08:33:12.219Z,97.90
2022-12-23T08:36:22.205Z,98.05
2022-12-23T08:39:27.057Z,97.69
2022-12-23T08:42:29.670Z,98.09
2022-12-23T08:45:32.275Z,98.51
2022-12-23T08:48:35.090Z,98.46
2022-12-23T08:51:37.982Z,98.29
2022-12-23T08:54:41.980Z,98.45
2022-12-23T08:57:44.630Z,98.77
2022-12-23T09:00:47.359Z,98.54
2022-12-23T09:03:50.787Z,98.31
2022-12-23T09:06:53.495Z,98.95
2022-12-23T09:09:57.559Z,99.10
2022-12-23T09:13:00.273Z,98.61
2022-12-23T09:16:03.009Z,98.91
2022-12-23T09:19:05.697Z,98.77
2022-12-23T09:22:09.392Z,98.65
2022-12-23T09:25:14.855Z,99.25
2022-12-23T09:28:17.544Z,99.27
2022-12-23T09:31:20.404Z,99.07
2022-12-23T09:34:23.158Z,99.28
2022-12-23T09:37:25.904Z,99.44
2022-12-23T09:40:30.303Z,100.00
2022-12-23T09:43:37.252Z,99.81
2022-12-23T09:46:41.965Z,100.00
2022-12-23T09:49:46.613Z,100.00
2022-12-23T09:52:54.807Z,99.74
2022-12-23T09:56:01.259Z,99.70
2022-12-23T09:59:07.717Z,99.84
2022-12-23T10:02:15.069Z,99.93
2022-12-23T10:05:20.345Z,100.00
2022-12-23T10:08:25.781Z,100.00
2022-12-23T10:11:31.398Z,100.00
2022-12-23T10:14:34.078Z,100.00
2022-12-23T10:17:39.383Z,100.00
2022-12-23T10:20:50.019Z,99.99
2022-12-23T10:23:53.679Z,100.00
2022-12-23T10:27:00.755Z,100.00
2022-12-23T10:30:26.459Z,100.00
2022-12-23T10:33:32.350Z,100.00
2022-12-23T10:36:40.127Z,100.00
2022-12-23T10:39:46.429Z,100.00
2022-12-23T10:42:54.095Z,100.00
2022-12-23T10:45:58.533Z,100.00
2022-12-23T10:49:03.589Z,100.00
2022-12-23T10:52:07.463Z,100.00
2022-12-23T10:55:16.273Z,100.00
2022-12-23T10:58:20.338Z,100.00
2022-12-23T11:01:27.166Z,100.00
2022-12-23T11:04:33.086Z,100.00
2022-12-23T11:07:45.178Z,100.00
2022-12-23T11:10:48.567Z,100.00
2022-12-23T11:13:52.823Z,100.00
2022-12-23T11:16:55.729Z,100.00
2022-12-23T11:20:09.582Z,100.00
2022-12-23T11:23:27.589Z,100.00
2022-12-23T11:26:30.102Z,100.00
2022-12-23T11:29:35.310Z,100.00
2022-12-23T11:32:38.024Z,100.00
2022-12-23T11:35:40.725Z,100.00
2022-12-23T11:38:49.229Z,100.00
2022-12-23T11:41:53.220Z,100.00
2022-12-23T11:44:59.152Z,100.00
2022-12-23T11:48:01.829Z,100.00
2022-12-23T11:51:06.199Z,100.00
2022-12-23T11:54:15.962Z,100.00
2022-12-23T11:57:19.997Z,100.00
2022-12-23T12:00:26.102Z,100.00
2022-12-23T12:03:29.828Z,100.00
2022-12-23T12:06:32.685Z,100.00
2022-12-23T12:09:35.432Z,100.00
2022-12-23T12:12:38.191Z,100.00
2022-12-23T12:15:44.607Z,100.00
2022-12-23T12:18:53.665Z,100.00
2022-12-23T12:22:00.008Z,100.00
2022-12-23T12:25:12.978Z,100.00
2022-12-23T12:28:18.413Z,100.00
2022-12-23T12:31:24.990Z,100.00
2022-12-23T12:34:35.974Z,100.00
2022-12-23T12:37:42.088Z,100.00
2022-12-23T12:40:46.642Z,100.00
2022-12-23T12:43:52.030Z,100.00
2022-12-23T12:46:58.228Z,100.00
2022-12-23T12:50:01.997Z,100.00
2022-12-23T12:53:10.182Z,100.00
2022-12-23T12:56:14.863Z,100.00
2022-12-23T12:59:18.727Z,100.00
2022-12-23T13:02:31.721Z,100.00
2022-12-23T13:05:53.830Z,100.00
2022-12-23T13:09:02.449Z,100.00
2022-12-23T13:12:06.816Z,100.00
2022-12-23T13:15:15.321Z,100.00
2022-12-23T13:18:28.341Z,100.00
2022-12-23T13:21:33.786Z,100.00
2022-12-23T13:24:39.219Z,100.00
2022-12-23T13:27:45.315Z,100.00
2022-12-23T13:30:49.823Z,100.00
2022-12-23T13:33:56.020Z,100.00
2022-12-23T13:37:01.912Z,100.00
2022-12-23T13:40:10.285Z,100.00
2022-12-23T13:43:20.088Z,100.00
2022-12-23T13:46:26.344Z,100.00
2022-12-23T13:49:44.388Z,100.00
2022-12-23T13:52:56.392Z,100.00
2022-12-23T13:56:04.575Z,100.00
2022-12-23T13:59:09.738Z,100.00
2022-12-23T14:02:44.634Z,100.00
2022-12-23T14:05:50.468Z,100.00
2022-12-23T14:08:53.401Z,100.00
2022-12-23T14:12:00.969Z,100.00
2022-12-23T14:15:29.320Z,100.00
2022-12-23T14:18:49.197Z,100.00
2022-12-23T14:22:02.331Z,100.00
2022-12-23T14:25:44.432Z,100.00
2022-12-23T14:29:07.670Z,100.00
2022-12-23T14:32:20.250Z,100.00
2022-12-23T14:35:28.876Z,100.00
2022-12-23T14:38:33.521Z,100.00
2022-12-23T14:41:39.705Z,100.00
2022-12-23T14:44:49.163Z,100.00
2022-12-23T14:47:52.016Z,100.00
2022-12-23T14:50:57.847Z,100.00
2022-12-23T14:54:15.474Z,100.00
2022-12-23T14:57:19.546Z,100.00
2022-12-23T15:00:22.265Z,100.00
2022-12-23T15:03:25.018Z,100.00
2022-12-23T15:06:33.142Z,100.00
2022-12-23T15:09:39.540Z,100.00
2022-12-23T15:12:47.327Z,100.00
2022-12-23T15:15:58.977Z,100.00
2022-12-23T15:19:20.036Z,100.00
2022-12-23T15:22:31.923Z,100.00
2022-12-23T15:25:36.958Z,100.00
2022-12-23T15:28:41.743Z,100.00
2022-12-23T15:31:47.378Z,100.00
2022-12-23T15:34:50.192Z,100.00
2022-12-23T15:37:52.892Z,100.00
2022-12-23T15:40:59.793Z,100.00
2022-12-23T15:44:02.450Z,100.00
2022-12-23T15:47:23.267Z,100.00
2022-12-23T15:50:26.003Z,100.00
2022-12-23T15:53:30.328Z,100.00
2022-12-23T15:56:35.316Z,100.00
2022-12-23T15:59:38.828Z,100.00
2022-12-23T16:03:01.538Z,100.00
2022-12-23T16:06:10.597Z,100.00
2022-12-23T16:09:24.985Z,100.00
2022-12-23T16:12:29.140Z,100.00
2022-12-23T16:15:32.854Z,100.00
2022-12-23T16:18:36.253Z,100.00
2022-12-23T16:21:38.854Z,100.00
2022-12-23T16:24:45.056Z,100.00
2022-12-23T16:27:49.801Z,100.00
2022-12-23T16:30:53.254Z,100.00
2022-12-23T16:33:56.732Z,100.00
2022-12-23T16:36:59.340Z,100.00
2022-12-23T16:40:02.287Z,100.00
2022-12-23T16:43:06.320Z,100.00
2022-12-23T16:46:09.383Z,100.00
2022-12-23T16:49:15.382Z,100.00
2022-12-23T16:52:18.156Z,100.00
2022-12-23T16:55:21.173Z,100.00
2022-12-23T16:58:25.450Z,100.00
2022-12-23T17:01:29.375Z,100.00
2022-12-23T17:04:32.103Z,100.00
2022-12-23T17:07:38.720Z,100.00
2022-12-23T17:10:44.874Z,100.00
2022-12-23T17:13:49.090Z,100.00
2022-12-23T17:16:52.190Z,100.00
2022-12-23T17:19:56.205Z,100.00
2022-12-23T17:23:03.456Z,100.00
2022-12-23T17:26:06.438Z,100.00
2022-12-23T17:29:12.419Z,100.00
2022-12-23T17:32:16.002Z,100.00
2022-12-23T17:35:19.949Z,100.00
2022-12-23T17:38:22.905Z,100.00
2022-12-23T17:41:27.736Z,100.00
2022-12-23T17:44:31.890Z,99.97
2022-12-23T17:47:34.681Z,99.97
2022-12-23T17:50:37.341Z,99.84
2022-12-23T17:53:40.140Z,100.00
2022-12-23T17:56:45.989Z,100.00
2022-12-23T17:59:50.473Z,100.00
2022-12-23T18:02:53.290Z,99.85
2022-12-23T18:06:01.771Z,99.89
2022-12-23T18:09:05.036Z,100.00
2022-12-23T18:12:08.077Z,99.71
2022-12-23T18:15:20.509Z,100.00
2022-12-23T18:18:32.123Z,100.00
2022-12-23T18:21:38.148Z,100.00
2022-12-23T18:24:40.797Z,100.00
2022-12-23T18:27:43.536Z,100.00
2022-12-23T18:30:47.561Z,99.57
2022-12-23T18:33:50.360Z,100.00
2022-12-23T18:36:53.126Z,100.00
2022-12-23T18:39:55.934Z,99.88
2022-12-23T18:42:58.634Z,100.00
2022-12-23T18:46:02.720Z,99.53
2022-12-23T18:49:05.507Z,99.93
2022-12-23T18:52:10.207Z,99.77
2022-12-23T18:55:12.964Z,99.65
2022-12-23T18:58:15.930Z,99.13
2022-12-23T19:01:19.982Z,98.77
2022-12-23T19:04:22.775Z,99.02
2022-12-23T19:07:25.447Z,98.82
2022-12-23T19:10:29.289Z,99.19
2022-12-23T19:13:33.192Z,98.48
2022-12-23T19:16:37.374Z,98.58
2022-12-23T19:19:40.513Z,98.13
2022-12-23T19:22:43.436Z,98.33
2022-12-23T19:25:54.561Z,98.19
2022-12-23T19:28:57.740Z,97.76
2022-12-23T19:32:01.891Z,98.54
2022-12-23T19:35:04.671Z,98.59
2022-12-23T19:38:07.545Z,97.76
2022-12-23T19:41:10.330Z,98.63
2022-12-23T19:44:13.233Z,98.08
2022-12-23T19:47:17.419Z,97.78
2022-12-23T19:50:22.136Z,98.04
2022-12-23T19:53:24.933Z,98.22
2022-12-23T19:56:29.375Z,98.67
2022-12-23T19:59:32.112Z,98.33
2022-12-23T20:02:36.648Z,98.77
2022-12-23T20:05:40.104Z,98.71
2022-12-23T20:08:45.659Z,98.03
2022-12-23T20:11:49.036Z,98.60
2022-12-23T20:14:51.732Z,97.89
2022-12-23T20:17:55.758Z,97.84
2022-12-23T20:20:59.547Z,98.01
2022-12-23T20:24:02.390Z,97.79
2022-12-23T20:27:09.528Z,97.34
2022-12-23T20:30:14.400Z,97.27
2022-12-23T20:33:18.568Z,96.70
2022-12-23T20:36:22.644Z,97.32
2022-12-23T20:39:25.368Z,96.38
2022-12-23T20:42:28.172Z,95.88
2022-12-23T20:45:30.865Z,96.01
2022-12-23T20:48:35.115Z,95.26
2022-12-23T20:51:37.857Z,95.06
2022-12-23T20:54:40.566Z,95.12
2022-12-23T20:57:45.363Z,94.40
2022-12-23T21:00:48.382Z,94.17
2022-12-23T21:03:53.092Z,93.75
2022-12-23T21:06:55.918Z,93.81
2022-12-23T21:09:58.802Z,93.78
2022-12-23T21:13:01.511Z,93.09
2022-12-23T21:16:04.532Z,93.33
2022-12-23T21:19:09.692Z,93.00
2022-12-23T21:22:12.492Z,92.64
2022-12-23T21:25:17.658Z,92.66
2022-12-23T21:28:20.335Z,92.43
2022-12-23T21:31:23.907Z,91.78
2022-12-23T21:34:28.076Z,91.19
2022-12-23T21:37:30.750Z,91.22
2022-12-23T21:40:33.418Z,90.95
2022-12-23T21:43:36.239Z,90.83
2022-12-23T21:46:39.010Z,89.94
2022-12-23T21:49:44.194Z,90.48
2022-12-23T21:52:46.955Z,90.05
2022-12-23T21:55:49.724Z,89.64
2022-12-23T21:58:55.961Z,89.04
2022-12-23T22:01:58.724Z,89.09
2022-12-23T22:05:03.690Z,88.40
2022-12-23T22:08:07.087Z,88.79
2022-12-23T22:11:10.345Z,89.11
2022-12-23T22:14:14.433Z,88.32
2022-12-23T22:17:17.168Z,88.33
2022-12-23T22:20:21.329Z,88.01
2022-12-23T22:23:24.048Z,88.06
2022-12-23T22:26:27.728Z,88.36
2022-12-23T22:29:30.402Z,88.14
2022-12-23T22:32:36.553Z,88.29
2022-12-23T22:35:43.209Z,88.32
2022-12-23T22:38:45.906Z,88.21
2022-12-23T22:41:48.711Z,88.15
2022-12-23T22:44:51.408Z,87.27
2022-12-23T22:47:54.231Z,87.45
2022-12-23T22:51:03.915Z,87.28
2022-12-23T22:54:06.718Z,87.15
2022-12-23T22:57:11.129Z,87.71
2022-12-23T23:00:14.566Z,86.96
2022-12-23T23:03:17.325Z,87.32
2022-12-23T23:06:21.471Z,86.74
2022-12-23T23:09:24.219Z,86.51
2022-12-23T23:12:27.002Z,87.39
2022-12-23T23:15:29.799Z,87.46
2022-12-23T23:18:32.518Z,87.39
2022-12-23T23:21:37.680Z,87.24
2022-12-23T23:24:40.384Z,87.75
2022-12-23T23:27:42.985Z,88.11
2022-12-23T23:30:45.660Z,87.96
2022-12-23T23:33:48.327Z,87.78
2022-12-23T23:36:52.479Z,88.10
2022-12-23T23:39:55.160Z,87.07
2022-12-23T23:43:00.443Z,87.61
2022-12-23T23:46:03.164Z,87.27
2022-12-23T23:49:06.157Z,87.27
2022-12-23T23:52:10.230Z,87.14
2022-12-23T23:55:12.909Z,87.91
2022-12-23T23:58:15.593Z,87.98
